»·PEaware :: N172MC KONT-KOXR

N172MC :: KONT-KOXR

FLIGHT INFORMATION

Flight Status: Arrived
Operator: Privately registered:
United States
More flights under this callsign
Pilot: Maurice C. (12314)
Aircraft: CESSNA 172 SKYHAWK
(C172)
More flights by this aircraft type
Origin: KONT Ontario Intl
United States
Destination: KOXR Oxnard
United States
More flights between these airports :: More routes between these airports
Route: +
File this flight plan on PilotEdge
Remarks:
Altitude:
(Current/Filed)
6,500ft
Speed:
(Current/Filed)
0kts
Departed: 12-Sep-19 11:42 AM
Arrived: 12-Sep-19 12:23 PM
Distance/Time
Traveled:
81nm/0:41
Distance/Time
To Go:
Arrived

Flight Plot

Page will automatically refresh every two minutes.

Flight plan parsing failed; only flown route is shown


Map Options




Map Legend


Flown Route
Filed Route
Departure Airport
Arrival Airport
Navaid (VOR, NDB)
Fix

Horizontal Profiles

Position Reports

Time Latitude Longitude Heading Altitude Ground
Speed
12-Sep-19 11:29 34.052227 -117.612560 276 942ft 0kts
12-Sep-19 11:30 34.052227 -117.612560 276 942ft 0kts
12-Sep-19 11:31 34.052227 -117.612560 276 942ft 0kts
12-Sep-19 11:32 34.052227 -117.612560 276 942ft 0kts
12-Sep-19 11:33 34.052227 -117.612560 276 942ft 0kts
12-Sep-19 11:34 34.053092 -117.612816 0 942ft 10kts
12-Sep-19 11:35 34.053845 -117.606307 89 942ft 27kts
12-Sep-19 11:36 34.053856 -117.597534 89 943ft 29kts
12-Sep-19 11:37 34.053862 -117.586924 90 942ft 27kts
12-Sep-19 11:38 34.053748 -117.583159 101 942ft 0kts
12-Sep-19 11:39 34.053742 -117.583120 100 942ft 3kts
12-Sep-19 11:40 34.054095 -117.582551 7 942ft 0kts
12-Sep-19 11:41 34.055196 -117.590651 266 1133ft 58kts
12-Sep-19 11:42 34.055068 -117.617678 270 1725ft 86kts
12-Sep-19 11:43 34.064957 -117.646208 296 2401ft 96kts
12-Sep-19 11:44 34.077967 -117.675990 296 2938ft 112kts
12-Sep-19 11:45 34.093141 -117.712214 296 3033ft 124kts
12-Sep-19 11:46 34.108418 -117.748748 296 3056ft 120kts
12-Sep-19 11:47 34.117797 -117.785567 264 3281ft 104kts
12-Sep-19 11:48 34.117627 -117.817687 270 3756ft 87kts
12-Sep-19 11:49 34.117865 -117.849201 270 4405ft 101kts
12-Sep-19 11:50 34.118148 -117.884961 270 5047ft 110kts
12-Sep-19 11:51 34.118420 -117.922976 270 5678ft 116kts
12-Sep-19 11:52 34.118756 -117.962315 270 6296ft 116kts
12-Sep-19 11:53 34.119209 -118.004726 270 6512ft 139kts
12-Sep-19 11:54 34.119697 -118.052404 270 6503ft 143kts
12-Sep-19 11:55 34.120868 -118.100735 275 6495ft 143kts
12-Sep-19 11:56 34.124542 -118.148979 275 6495ft 144kts
12-Sep-19 11:57 34.128707 -118.197143 275 6493ft 144kts
12-Sep-19 11:58 34.132352 -118.245586 276 6499ft 144kts
12-Sep-19 11:59 34.135953 -118.293461 275 6496ft 140kts
12-Sep-19 12:00 34.139349 -118.339343 275 6494ft 136kts
12-Sep-19 12:01 34.142786 -118.384698 275 6494ft 136kts
12-Sep-19 12:02 34.146104 -118.429991 275 6492ft 134kts
12-Sep-19 12:03 34.149477 -118.475083 274 6491ft 135kts
12-Sep-19 12:04 34.152805 -118.520260 275 6487ft 134kts
12-Sep-19 12:05 34.156077 -118.565299 275 6485ft 134kts
12-Sep-19 12:07 34.159587 -118.613381 275 5969ft 147kts
12-Sep-19 12:08 34.163054 -118.661135 274 5355ft 137kts
12-Sep-19 12:09 34.166158 -118.704976 274 4944ft 127kts
12-Sep-19 12:10 34.170929 -118.747307 280 4544ft 127kts
12-Sep-19 12:11 34.177291 -118.786428 281 4512ft 113kts
12-Sep-19 12:12 34.183440 -118.823225 281 4503ft 113kts
12-Sep-19 12:13 34.189806 -118.861361 281 4474ft 119kts
12-Sep-19 12:14 34.197000 -118.904038 281 3833ft 123kts
12-Sep-19 12:15 34.199916 -118.946715 268 3160ft 137kts
12-Sep-19 12:16 34.199880 -118.985939 269 2497ft 93kts
12-Sep-19 12:17 34.199892 -119.022466 269 2485ft 101kts
12-Sep-19 12:18 34.200207 -119.058303 271 2056ft 117kts
12-Sep-19 12:19 34.200404 -119.096092 269 1668ft 109kts
12-Sep-19 12:20 34.200684 -119.132963 267 1070ft 106kts
12-Sep-19 12:21 34.200713 -119.168786 265 628ft 107kts
12-Sep-19 12:22 34.200787 -119.202441 267 59ft 75kts
12-Sep-19 12:23 34.200084 -119.211834 240 41ft 6kts
12-Sep-19 12:24 34.200076 -119.211853 240 41ft 0kts
12-Sep-19 12:25 34.200068 -119.211869 238 41ft 0kts
12-Sep-19 12:26 34.199502 -119.212810 5 41ft 0kts
12-Sep-19 12:26 34.199502 -119.212810 5 41ft 0kts

Navigation Log

Ident Type
Flight plan parsing failed, navigation log unavailable